Time;durP1;ratioP1;P1;durP2;ratioP2;P2;SDS_P1;SDS_P2;PMS_P1;PMS_P2;Temp;Humidity;BMP_temperature;BMP_pressure;BME280_temperature;BME280_humidity;BME280_pressure;Samples;Min_cycle;Max_cycle;Signal;HPM_P1;HPM_P2
2022/03/29 00:01:35;;;;;;;20.80;13.53;;;;;;;12.30;53.89;96799.63;5095009;28;20927;-38
2022/03/29 00:04:02;;;;;;;17.77;11.00;;;;;;;12.28;53.86;96797.22;5095119;28;20446;-38
2022/03/29 00:06:31;;;;;;;26.53;12.33;;;;;;;12.27;54.05;96795.59;5094965;28;20953;-38
2022/03/29 00:08:59;;;;;;;21.97;14.00;;;;;;;12.26;54.23;96791.34;5094892;28;20439;-37
2022/03/29 00:11:26;;;;;;;20.00;12.03;;;;;;;12.25;54.17;96787.06;5094942;28;20439;-38
2022/03/29 00:13:53;;;;;;;35.03;13.60;;;;;;;12.26;54.23;96783.38;5094997;28;20638;-39
2022/03/29 00:16:20;;;;;;;16.27;10.83;;;;;;;12.27;54.51;96784.97;5094784;28;20926;-39
2022/03/29 00:18:48;;;;;;;20.00;11.67;;;;;;;12.28;54.07;96778.59;5094664;28;21006;-38
2022/03/29 00:21:15;;;;;;;26.20;12.87;;;;;;;12.29;54.48;96780.19;5094552;28;20533;-37
2022/03/29 00:23:44;;;;;;;16.30;11.93;;;;;;;12.29;54.30;96772.22;5094988;28;20451;-38
2022/03/29 00:26:11;;;;;;;20.03;11.13;;;;;;;12.26;54.43;96772.72;5094327;28;20544;-38
2022/03/29 00:28:39;;;;;;;20.93;10.47;;;;;;;12.23;54.42;96772.41;5094474;28;20529;-38
2022/03/29 00:31:06;;;;;;;25.97;10.67;;;;;;;12.22;54.40;96766.28;5094412;28;20439;-38
2022/03/29 00:33:33;;;;;;;13.33;10.57;;;;;;;12.22;54.42;96771.59;5094327;28;20548;-38
2022/03/29 00:36:01;;;;;;;14.83;9.30;;;;;;;12.19;54.22;96760.63;5094323;28;20926;-38
2022/03/29 00:38:28;;;;;;;18.90;11.27;;;;;;;12.12;54.44;96754.69;5094311;28;20948;-38
2022/03/29 00:40:59;;;;;;;18.70;9.87;;;;;;;12.06;54.14;96751.16;5094629;28;20803;-39
2022/03/29 00:43:26;;;;;;;14.07;10.53;;;;;;;12.09;54.71;96750.69;5094187;28;20457;-38
2022/03/29 00:45:54;;;;;;;14.13;9.90;;;;;;;12.09;54.65;96753.34;5094481;28;20445;-38
2022/03/29 00:48:21;;;;;;;15.13;10.40;;;;;;;12.10;54.17;96752.28;5094050;28;20523;-38
2022/03/29 00:50:48;;;;;;;17.53;10.07;;;;;;;12.10;54.27;96757.59;5094128;28;20443;-39
2022/03/29 00:53:18;;;;;;;14.33;10.17;;;;;;;12.08;54.38;96759.69;5093702;28;20573;-38
2022/03/29 00:55:48;;;;;;;21.97;13.33;;;;;;;12.05;54.24;96752.22;5094079;28;20530;-39
2022/03/29 00:58:17;;;;;;;19.10;11.60;;;;;;;12.00;54.59;96752.13;5093969;28;20473;-39
2022/03/29 01:00:47;;;;;;;17.63;10.90;;;;;;;11.97;55.07;96742.00;5093974;28;20446;-38
2022/03/29 01:03:15;;;;;;;17.00;10.90;;;;;;;11.96;55.00;96740.38;5093904;28;20488;-38
2022/03/29 01:05:43;;;;;;;16.10;11.10;;;;;;;11.90;55.05;96736.06;5093887;28;20479;-39
2022/03/29 01:08:11;;;;;;;17.77;10.83;;;;;;;11.90;54.88;96742.19;5094164;28;20442;-38
2022/03/29 01:10:38;;;;;;;28.73;12.83;;;;;;;11.87;55.11;96739.97;5093858;28;20939;-38
2022/03/29 01:13:07;;;;;;;21.40;11.73;;;;;;;11.86;55.36;96739.16;5093606;28;20573;-38
2022/03/29 01:15:38;;;;;;;18.00;11.67;;;;;;;11.85;55.12;96729.59;5093960;28;20443;-38
2022/03/29 01:18:05;;;;;;;21.57;12.17;;;;;;;11.82;55.31;96727.41;5094107;28;20434;-38
2022/03/29 01:20:34;;;;;;;21.10;13.47;;;;;;;11.81;55.59;96722.34;5094018;28;20500;-37
2022/03/29 01:23:03;;;;;;;16.30;9.77;;;;;;;11.80;55.55;96720.72;5093565;28;20536;-38
2022/03/29 01:25:35;;;;;;;18.53;11.70;;;;;;;11.79;55.55;96711.94;5093722;28;20475;-38
2022/03/29 01:28:03;;;;;;;23.57;13.50;;;;;;;11.75;55.51;96707.38;5093903;28;20899;-38
2022/03/29 01:30:31;;;;;;;21.23;12.00;;;;;;;11.79;55.41;96705.81;5093521;28;20553;-38
2022/03/29 01:33:01;;;;;;;25.40;12.50;;;;;;;11.77;55.30;96703.41;5093704;28;20486;-38
2022/03/29 01:35:30;;;;;;;29.57;13.50;;;;;;;11.77;55.38;96699.94;5094150;28;20447;-38
2022/03/29 01:37:58;;;;;;;23.00;12.70;;;;;;;11.76;55.50;96696.47;5093743;28;20447;-38
2022/03/29 01:40:28;;;;;;;16.20;10.23;;;;;;;11.75;55.56;96686.09;5093673;28;20446;-38
2022/03/29 01:42:57;;;;;;;22.37;11.60;;;;;;;11.77;55.55;96684.78;5093754;28;20477;-39
2022/03/29 01:45:26;;;;;;;16.30;8.97;;;;;;;11.77;55.60;96670.69;5093398;28;20892;-38
2022/03/29 01:47:54;;;;;;;20.37;10.97;;;;;;;11.77;55.55;96679.47;5093596;28;20446;-38
2022/03/29 01:50:21;;;;;;;19.97;12.73;;;;;;;11.76;55.50;96677.84;5093277;28;20500;-39
2022/03/29 01:52:49;;;;;;;20.53;10.83;;;;;;;11.76;55.94;96671.72;5093194;28;20447;-39
2022/03/29 01:55:18;;;;;;;20.13;11.37;;;;;;;11.73;55.93;96683.66;5093663;28;20445;-38
2022/03/29 01:57:48;;;;;;;20.53;12.07;;;;;;;11.72;55.54;96671.41;5094182;28;20454;-38
2022/03/29 02:00:33;;;;;;;19.30;10.60;;;;;;;11.72;55.59;96676.72;5093784;28;20445;-38
2022/03/29 02:03:03;;;;;;;26.43;15.20;;;;;;;11.69;55.89;96677.22;5093234;28;20439;-38
2022/03/29 02:05:32;;;;;;;23.30;13.23;;;;;;;11.64;55.71;96674.50;5095647;28;20457;-37
2022/03/29 02:07:59;;;;;;;22.43;10.77;;;;;;;11.63;56.02;96668.38;5097158;28;20442;-37
2022/03/29 02:10:27;;;;;;;22.00;11.23;;;;;;;11.63;56.13;96665.69;5097510;28;20478;-38
2022/03/29 02:12:57;;;;;;;21.27;11.93;;;;;;;11.64;56.13;96663.88;5097321;28;20466;-38
2022/03/29 02:15:24;;;;;;;17.67;11.07;;;;;;;11.49;56.19;96635.22;5097055;28;20453;-38
2022/03/29 02:17:52;;;;;;;18.13;11.10;;;;;;;11.61;56.25;96659.03;5097086;28;20537;-38
2022/03/29 02:20:20;;;;;;;19.70;12.47;;;;;;;11.61;56.63;96643.06;5097022;28;20445;-38
2022/03/29 02:22:48;;;;;;;28.63;12.07;;;;;;;11.61;56.43;96643.06;5096932;28;20813;-38
2022/03/29 02:25:15;;;;;;;19.60;11.97;;;;;;;11.60;56.44;96636.97;5096730;28;20475;-38
2022/03/29 02:27:44;;;;;;;22.23;13.07;;;;;;;11.61;56.53;96632.44;5096836;28;20537;-38
2022/03/29 02:30:15;;;;;;;18.03;12.23;;;;;;;11.61;56.18;96632.44;5097098;28;20833;-39
2022/03/29 02:32:42;;;;;;;19.73;11.03;;;;;;;11.47;56.04;96616.84;5097409;28;20496;-39
2022/03/29 02:35:10;;;;;;;18.17;10.73;;;;;;;11.59;56.04;96635.34;5096543;28;20974;-38
2022/03/29 02:37:38;;;;;;;31.90;13.00;;;;;;;11.53;55.93;96635.53;5096645;28;20482;-38
2022/03/29 02:40:06;;;;;;;22.50;12.20;;;;;;;11.45;56.04;96640.22;5096617;28;20442;-38
2022/03/29 02:42:34;;;;;;;33.90;17.17;;;;;;;11.35;56.11;96644.59;5096878;28;20446;-38
2022/03/29 02:45:01;;;;;;;24.10;13.70;;;;;;;11.26;56.31;96637.03;5096903;28;20451;-38
2022/03/29 02:47:30;;;;;;;19.27;12.87;;;;;;;11.22;56.73;96638.56;5096543;28;20443;-38
2022/03/29 02:49:57;;;;;;;26.50;12.17;;;;;;;11.22;56.94;96640.41;5096613;28;20435;-40
2022/03/29 02:52:24;;;;;;;17.57;11.20;;;;;;;11.24;57.14;96640.97;5096748;28;20445;-40
2022/03/29 02:54:52;;;;;;;26.93;11.23;;;;;;;11.25;57.12;96635.44;5096278;28;20491;-40
2022/03/29 02:57:19;;;;;;;18.17;11.00;;;;;;;11.26;56.96;96630.91;5096326;28;20954;-39
2022/03/29 02:59:46;;;;;;;22.87;11.90;;;;;;;11.27;57.36;96630.69;5096209;28;20439;-40
2022/03/29 03:02:13;;;;;;;24.77;10.70;;;;;;;11.27;57.17;96622.72;5096319;28;20455;-40
2022/03/29 03:04:42;;;;;;;21.43;10.60;;;;;;;11.29;57.39;96625.09;5096102;28;20533;-41
2022/03/29 03:07:09;;;;;;;17.83;11.10;;;;;;;11.29;56.88;96617.13;5096081;28;20449;-37
2022/03/29 03:09:37;;;;;;;16.87;9.27;;;;;;;11.30;56.83;96626.72;5096043;28;20443;-38
2022/03/29 03:12:04;;;;;;;16.30;9.20;;;;;;;11.30;56.78;96621.41;5095916;28;20534;-37
2022/03/29 03:14:32;;;;;;;17.43;9.20;;;;;;;11.30;56.61;96621.41;5096228;28;20497;-36
2022/03/29 03:16:59;;;;;;;12.83;8.30;;;;;;;11.30;56.43;96616.09;5094919;28;20441;-37
2022/03/29 03:19:26;;;;;;;20.50;11.30;;;;;;;11.30;56.31;96618.75;5095883;28;20475;-36
2022/03/29 03:21:55;;;;;;;14.80;8.43;;;;;;;11.30;56.35;96628.59;5095918;28;20485;-37
2022/03/29 03:24:22;;;;;;;17.07;10.73;;;;;;;11.24;55.75;96638.31;5095832;28;20465;-37
2022/03/29 03:26:49;;;;;;;17.20;10.33;;;;;;;11.17;55.72;96629.72;5096104;28;20915;-37
2022/03/29 03:29:16;;;;;;;29.07;13.00;;;;;;;11.03;56.21;96630.06;5095954;28;20535;-37
2022/03/29 03:31:44;;;;;;;22.53;13.10;;;;;;;10.89;56.93;96628.78;5095663;28;20447;-38
2022/03/29 03:34:11;;;;;;;23.57;12.47;;;;;;;10.80;57.38;96627.59;5095494;28;20570;-36
2022/03/29 03:36:38;;;;;;;22.03;11.47;;;;;;;10.79;57.99;96631.28;5095621;28;20530;-37
2022/03/29 03:39:07;;;;;;;14.17;10.47;;;;;;;10.81;57.89;96629.19;5095424;28;20438;-37
2022/03/29 03:41:34;;;;;;;16.73;11.87;;;;;;;10.72;57.89;96612.03;5095508;28;20435;-37
2022/03/29 03:44:01;;;;;;;24.47;12.00;;;;;;;10.81;57.89;96629.19;5095728;28;20443;-37
2022/03/29 03:46:29;;;;;;;23.23;13.53;;;;;;;10.84;57.92;96623.38;5095688;28;20443;-36
2022/03/29 03:48:56;;;;;;;21.27;12.23;;;;;;;10.83;58.19;96633.19;5095622;28;20526;-36
2022/03/29 03:51:24;;;;;;;21.60;13.97;;;;;;;10.79;57.98;96631.28;5095210;28;21009;-37
2022/03/29 03:53:51;;;;;;;29.47;14.93;;;;;;;10.78;57.89;96624.38;5095456;28;20569;-37
2022/03/29 03:56:20;;;;;;;28.93;17.43;;;;;;;10.73;58.58;96624.25;5095197;28;20443;-37
2022/03/29 03:58:47;;;;;;;23.27;14.43;;;;;;;10.68;58.39;96618.88;5095156;28;20454;-37
2022/03/29 04:01:14;;;;;;;23.23;13.67;;;;;;;10.64;58.73;96613.22;5095293;28;20441;-36
2022/03/29 04:03:41;;;;;;;27.27;13.23;;;;;;;10.61;58.92;96619.84;5095232;28;20451;-36
2022/03/29 04:06:09;;;;;;;25.60;13.57;;;;;;;10.60;59.29;96618.25;5094972;28;20445;-37
2022/03/29 04:08:36;;;;;;;25.37;13.10;;;;;;;10.54;59.47;96616.53;5095158;28;20523;-37
2022/03/29 04:11:04;;;;;;;30.87;16.87;;;;;;;10.51;59.43;96619.66;5095208;28;20450;-40
2022/03/29 04:13:34;;;;;;;38.60;19.90;;;;;;;10.49;59.34;96621.75;5095091;28;20473;-39
2022/03/29 04:16:02;;;;;;;35.03;18.83;;;;;;;10.39;59.40;96618.91;5094733;28;20517;-38
2022/03/29 04:18:29;;;;;;;32.10;19.37;;;;;;;10.34;59.47;96616.19;5095075;28;20443;-40
2022/03/29 04:20:56;;;;;;;29.07;19.93;;;;;;;10.34;59.60;96624.13;5094834;28;20473;-40
2022/03/29 04:23:23;;;;;;;24.37;16.40;;;;;;;10.35;59.52;96610.66;5094964;28;20439;-41
2022/03/29 04:25:51;;;;;;;34.43;16.20;;;;;;;10.40;59.48;96615.22;5094625;28;20551;-40
2022/03/29 04:28:18;;;;;;;28.93;16.10;;;;;;;10.44;59.28;96613.72;5094716;28;20482;-41
2022/03/29 04:30:47;;;;;;;32.70;17.50;;;;;;;10.49;59.26;96613.78;5094554;28;20935;-40
2022/03/29 04:33:15;;;;;;;34.10;18.60;;;;;;;10.54;58.74;96613.88;5094728;28;20489;-41
2022/03/29 04:35:42;;;;;;;42.03;20.83;;;;;;;10.58;58.48;96615.03;5094673;28;20497;-39
2022/03/29 04:38:10;;;;;;;25.13;16.47;;;;;;;10.63;58.43;96607.13;5094340;28;20447;-40
2022/03/29 04:40:37;;;;;;;31.73;16.73;;;;;;;10.72;58.60;96601.41;5094327;28;20479;-41
2022/03/29 04:43:04;;;;;;;32.73;17.93;;;;;;;10.81;58.32;96618.56;5094265;28;20925;-40
2022/03/29 04:45:32;;;;;;;38.00;20.60;;;;;;;10.93;58.01;96607.88;5094131;28;20534;-39
2022/03/29 04:48:00;;;;;;;38.30;18.40;;;;;;;11.10;57.74;96610.47;5094181;28;20485;-40
2022/03/29 04:50:29;;;;;;;34.73;17.33;;;;;;;11.22;56.89;96613.84;5094175;28;20451;-40
2022/03/29 04:52:56;;;;;;;28.00;17.10;;;;;;;11.44;56.55;96608.56;5114363;28;20508;-39
2022/03/29 04:55:23;;;;;;;24.47;14.83;;;;;;;11.50;56.11;96583.66;5115097;28;20489;-40
2022/03/29 04:57:52;;;;;;;27.20;16.20;;;;;;;11.91;55.33;96610.75;5114313;28;20473;-39
2022/03/29 05:00:21;;;;;;;29.90;15.80;;;;;;;12.08;54.58;96614.13;5114342;28;20438;-40
2022/03/29 05:02:49;;;;;;;23.63;12.90;;;;;;;12.31;54.21;96614.91;5114257;28;20449;-39
2022/03/29 05:05:18;;;;;;;33.80;14.23;;;;;;;12.41;53.35;96587.56;5114226;28;20525;-40
2022/03/29 05:07:46;;;;;;;23.60;12.10;;;;;;;12.77;52.33;96611.84;5114220;28;20442;-40
2022/03/29 05:10:14;;;;;;;30.30;11.83;;;;;;;12.95;51.79;96600.81;5114187;28;20442;-40
2022/03/29 05:12:42;;;;;;;15.33;8.67;;;;;;;13.10;51.07;96603.56;5114660;28;20517;-40
2022/03/29 05:15:10;;;;;;;18.80;9.43;;;;;;;13.20;50.70;96602.03;5113953;28;20876;-41
2022/03/29 05:17:38;;;;;;;21.10;14.80;;;;;;;13.28;50.53;96601.53;5114497;28;20453;-40
2022/03/29 05:20:07;;;;;;;34.17;18.07;;;;;;;13.29;51.03;96595.16;5114278;28;20802;-40
2022/03/29 05:22:42;;;;;;;28.73;18.93;;;;;;;13.33;50.54;96604.25;5114023;28;20485;-39
2022/03/29 05:25:09;;;;;;;29.30;19.57;;;;;;;13.36;50.61;96603.75;5114110;28;20556;-38
2022/03/29 05:27:37;;;;;;;36.57;19.70;;;;;;;13.35;51.20;96599.47;5114311;28;20457;-38
2022/03/29 05:30:04;;;;;;;38.63;19.20;;;;;;;13.40;51.49;96604.03;5113808;28;20442;-38
2022/03/29 05:32:32;;;;;;;41.13;23.37;;;;;;;13.49;51.63;96603.28;5113897;28;20961;-38
2022/03/29 05:34:59;;;;;;;64.77;28.60;;;;;;;13.67;51.27;96614.56;5113834;28;20485;-38
2022/03/29 05:37:26;;;;;;;48.83;27.70;;;;;;;13.80;50.11;96607.94;5113791;28;20485;-38
2022/03/29 05:39:55;;;;;;;57.60;28.17;;;;;;;13.90;50.03;96613.34;5113584;28;20453;-37
2022/03/29 05:42:22;;;;;;;49.37;27.50;;;;;;;13.99;49.98;96594.94;5113616;28;20448;-38
2022/03/29 05:44:50;;;;;;;47.30;26.60;;;;;;;14.27;49.58;96613.16;5113666;28;20929;-37
2022/03/29 05:50:01;;;;;;;29.67;20.90;;;;;;;14.70;47.52;96595.06;5113869;28;20779;-38
2022/03/29 05:52:29;;;;;;;32.67;20.50;;;;;;;14.92;46.89;96608.16;5113673;28;20440;-37
2022/03/29 05:54:58;;;;;;;37.23;22.87;;;;;;;15.08;46.57;96605.50;5103115;28;20537;-37
2022/03/29 05:57:25;;;;;;;48.30;22.03;;;;;;;15.03;46.00;96571.53;5093315;28;20442;-37
2022/03/29 05:59:53;;;;;;;34.80;18.43;;;;;;;15.24;45.88;96592.88;5093222;28;20447;-38
2022/03/29 06:02:20;;;;;;;32.47;18.23;;;;;;;15.14;46.64;96602.53;5093578;28;20450;-37
2022/03/29 06:04:47;;;;;;;30.43;18.87;;;;;;;15.18;46.99;96593.97;5093317;28;20454;-37
2022/03/29 06:07:15;;;;;;;26.90;18.50;;;;;;;15.42;47.18;96604.88;5093266;28;20447;-40
2022/03/29 06:09:42;;;;;;;30.33;15.93;;;;;;;15.68;47.10;96597.56;5093581;28;20835;-39
2022/03/29 06:12:11;;;;;;;24.83;17.50;;;;;;;15.91;46.96;96586.25;5093155;28;20526;-40
2022/03/29 06:14:39;;;;;;;22.07;15.70;;;;;;;16.23;45.17;96598.41;5093367;28;20528;-39
2022/03/29 06:17:07;;;;;;;18.60;13.27;;;;;;;16.25;44.09;96598.13;5093126;28;20497;-40
2022/03/29 06:19:36;;;;;;;18.43;12.80;;;;;;;16.09;43.28;96600.09;5093100;28;20447;-36
2022/03/29 06:22:04;;;;;;;24.07;13.30;;;;;;;15.99;44.03;96586.78;5093001;28;20442;-37
2022/03/29 06:24:32;;;;;;;20.17;13.00;;;;;;;16.14;43.72;96594.72;5093244;28;20478;-37
2022/03/29 06:26:59;;;;;;;29.37;12.17;;;;;;;16.31;43.54;96595.16;5093024;28;20427;-37
2022/03/29 06:29:28;;;;;;;23.90;11.20;;;;;;;16.49;42.92;96600.94;5093341;28;20443;-35
2022/03/29 06:31:56;;;;;;;20.70;12.77;;;;;;;16.81;42.44;96596.97;5093040;28;20446;-38
2022/03/29 06:34:23;;;;;;;21.27;13.63;;;;;;;17.25;40.94;96591.47;5092854;28;20505;-38
2022/03/29 06:36:51;;;;;;;21.70;11.57;;;;;;;17.71;39.75;96587.47;5093207;28;20526;-37
2022/03/29 06:39:18;;;;;;;23.87;12.37;;;;;;;18.13;39.47;96591.25;5092991;28;20479;-37
2022/03/29 06:41:46;;;;;;;15.60;10.40;;;;;;;18.42;37.59;96578.50;5093444;28;20446;-38
2022/03/29 06:44:13;;;;;;;13.43;8.93;;;;;;;18.74;36.66;96585.00;5093225;28;20854;-37
2022/03/29 06:46:42;;;;;;;17.90;11.47;;;;;;;18.83;36.14;96577.88;5093242;28;20450;-37
2022/03/29 06:49:09;;;;;;;18.10;10.37;;;;;;;18.99;35.25;96572.22;5093089;28;20450;-38
2022/03/29 06:51:37;;;;;;;10.80;8.70;;;;;;;19.02;35.71;96579.72;5093367;28;20449;-37
2022/03/29 06:54:05;;;;;;;13.37;8.63;;;;;;;19.11;36.34;96569.88;5096779;28;20439;-37
2022/03/29 06:56:32;;;;;;;22.50;8.83;;;;;;;19.33;36.43;96565.72;5096611;28;20533;-36
2022/03/29 06:59:02;;;;;;;17.30;8.70;;;;;;;19.49;36.55;96564.34;5096704;28;20439;-38
2022/03/29 07:01:30;;;;;;;10.17;9.07;;;;;;;19.77;35.90;96569.75;5096328;28;20990;-37
2022/03/29 07:03:59;;;;;;;14.27;8.37;;;;;;;19.99;36.04;96556.31;5096606;28;20798;-38
2022/03/29 07:06:30;;;;;;;11.87;8.40;;;;;;;20.07;35.44;96565.59;5096454;28;20482;-37
2022/03/29 07:11:42;;;;;;;10.27;8.07;;;;;;;20.42;34.28;96547.81;5096394;28;20432;-38
2022/03/29 07:14:10;;;;;;;17.10;9.27;;;;;;;20.71;34.77;96562.00;5096580;28;20496;-36
2022/03/29 07:16:38;;;;;;;15.23;9.57;;;;;;;20.71;33.68;96543.91;5095977;28;20494;-37
2022/03/29 07:19:08;;;;;;;20.07;8.53;;;;;;;20.82;32.18;96549.84;5096067;28;20442;-38
2022/03/29 07:21:37;;;;;;;15.40;7.93;;;;;;;20.83;32.55;96552.25;5096233;28;20438;-37
2022/03/29 07:24:05;;;;;;;10.73;8.50;;;;;;;21.07;32.83;96556.53;5095646;28;20966;-36
2022/03/29 07:26:33;;;;;;;14.73;7.70;;;;;;;21.31;31.73;96550.75;5095788;28;20455;-39
2022/03/29 07:29:01;;;;;;;11.00;8.13;;;;;;;21.40;31.33;96553.47;5095779;28;20504;-38
2022/03/29 07:31:28;;;;;;;14.60;8.70;;;;;;;21.48;31.43;96539.25;5095773;28;20442;-37
2022/03/29 07:33:55;;;;;;;12.67;7.40;;;;;;;21.57;31.15;96550.09;5089091;28;20493;-38
2022/03/29 07:36:24;;;;;;;10.20;7.27;;;;;;;21.71;30.06;96531.06;5095514;28;21021;-39
2022/03/29 07:38:51;;;;;;;14.00;8.50;;;;;;;21.77;30.52;96544.13;5092168;28;20466;-37
2022/03/29 07:41:18;;;;;;;12.10;7.80;;;;;;;21.78;29.90;96526.00;5090180;28;20447;-37
2022/03/29 07:43:46;;;;;;;15.27;8.97;;;;;;;21.47;30.30;96532.28;5095252;28;20812;-37
2022/03/29 07:46:14;;;;;;;11.27;7.90;;;;;;;21.31;30.51;96520.25;5095692;28;20439;-38
2022/03/29 07:48:41;;;;;;;18.17;10.37;;;;;;;21.53;30.79;96541.84;5095347;28;20479;-37
2022/03/29 07:51:10;;;;;;;8.87;7.97;;;;;;;21.31;31.52;96533.75;5095342;28;20449;-38
2022/03/29 07:53:40;;;;;;;13.90;8.37;;;;;;;21.28;32.16;96527.88;5095177;28;20892;-37
2022/03/29 07:56:07;;;;;;;15.53;8.37;;;;;;;21.31;32.70;96522.97;5094536;28;20486;-38
2022/03/29 07:58:34;;;;;;;23.83;8.70;;;;;;;21.35;31.73;96523.94;5095122;28;20491;-38
2022/03/29 08:01:02;;;;;;;14.60;8.03;;;;;;;21.33;31.61;96516.13;5095104;28;20439;-37
2022/03/29 08:03:32;;;;;;;16.53;8.57;;;;;;;21.30;31.87;96507.88;5094617;28;20473;-37
2022/03/29 08:06:01;;;;;;;10.93;7.80;;;;;;;21.20;31.26;96515.13;5095345;28;20449;-37
2022/03/29 08:08:30;;;;;;;15.43;8.77;;;;;;;21.22;31.95;96510.22;5095040;28;20534;-37
2022/03/29 08:10:59;;;;;;;11.70;8.23;;;;;;;21.41;30.87;96488.41;5095258;28;20458;-38
2022/03/29 08:13:27;;;;;;;16.00;8.30;;;;;;;21.75;30.25;96494.22;5094878;28;20446;-38
2022/03/29 08:15:56;;;;;;;13.83;6.90;;;;;;;21.91;29.87;96497.25;5094998;28;20487;-37
2022/03/29 08:18:24;;;;;;;16.47;7.53;;;;;;;22.08;28.39;96497.25;5094840;28;20543;-37
2022/03/29 08:20:51;;;;;;;19.23;8.57;;;;;;;22.24;28.16;96494.88;5094725;28;20447;-37
2022/03/29 08:23:18;;;;;;;11.13;7.27;;;;;;;22.37;28.63;96499.34;5094956;28;20494;-38
2022/03/29 08:25:45;;;;;;;8.80;7.50;;;;;;;22.46;27.28;96489.31;5094698;28;20982;-37
2022/03/29 08:28:16;;;;;;;19.83;8.67;;;;;;;22.24;27.92;96484.06;5094641;28;20450;-38
2022/03/29 08:30:44;;;;;;;13.40;8.37;;;;;;;22.23;28.07;96488.69;5094928;28;20427;-37
2022/03/29 08:33:13;;;;;;;16.37;8.93;;;;;;;22.01;28.19;96481.50;5094682;28;20475;-38
2022/03/29 08:35:43;;;;;;;14.63;8.33;;;;;;;21.94;28.10;96478.50;5094807;28;20981;-37
2022/03/29 08:38:10;;;;;;;18.50;7.97;;;;;;;21.85;26.58;96472.28;5094333;28;20443;-37
2022/03/29 08:40:38;;;;;;;13.10;8.77;;;;;;;21.74;29.11;96477.19;5094337;28;20450;-38
2022/03/29 08:43:08;;;;;;;12.27;8.23;;;;;;;21.67;29.05;96472.25;5094295;28;20468;-38
2022/03/29 08:45:41;;;;;;;14.90;9.00;;;;;;;21.59;29.88;96470.31;5094177;28;20458;-38
2022/03/29 08:48:09;;;;;;;14.73;8.10;;;;;;;21.53;29.16;96463.50;5094351;28;20432;-38
2022/03/29 08:50:38;;;;;;;22.03;8.80;;;;;;;21.37;29.94;96463.09;5094149;28;20435;-38
2022/03/29 08:53:07;;;;;;;10.57;8.40;;;;;;;21.22;29.63;96461.63;5094044;28;20447;-38
2022/03/29 08:55:35;;;;;;;21.33;18.50;;;;;;;21.05;29.97;96456.19;5093935;28;20528;-37
2022/03/29 08:58:02;;;;;;;19.63;9.70;;;;;;;21.11;30.16;96454.94;5094047;28;20809;-38
2022/03/29 09:00:29;;;;;;;11.87;8.30;;;;;;;21.20;29.16;96449.56;5093879;28;20965;-37
2022/03/29 09:02:58;;;;;;;14.50;8.10;;;;;;;21.39;28.26;96454.69;5094152;28;20938;-38
2022/03/29 09:05:29;;;;;;;16.80;9.53;;;;;;;21.60;28.21;96454.94;5094217;28;20451;-38
2022/03/29 09:07:58;;;;;;;12.17;8.57;;;;;;;21.60;27.80;96444.13;5094244;28;20427;-37
2022/03/29 09:10:41;;;;;;;11.70;8.53;;;;;;;21.70;26.90;96443.03;5093738;28;20538;-37
2022/03/29 09:13:19;;;;;;;10.23;7.67;;;;;;;21.78;27.02;96450.34;5081019;28;20843;-37
2022/03/29 09:15:47;;;;;;;13.40;9.93;;;;;;;22.21;26.56;96441.44;5072936;28;20540;-38
2022/03/29 09:18:16;;;;;;;11.13;8.90;;;;;;;22.23;26.43;96428.44;5073781;28;20489;-37
2022/03/29 09:20:45;;;;;;;13.33;9.77;;;;;;;22.32;26.71;96437.31;5073307;28;20946;-37
2022/03/29 09:23:14;;;;;;;16.70;9.63;;;;;;;21.96;27.45;96435.75;5073480;28;20455;-38
2022/03/29 09:25:47;;;;;;;14.47;10.80;;;;;;;21.94;28.04;96427.16;5073332;28;20994;-38
2022/03/29 09:28:15;;;;;;;16.70;9.03;;;;;;;22.08;27.02;96403.44;5073700;28;20485;-37
2022/03/29 09:30:44;;;;;;;12.53;8.40;;;;;;;22.33;27.11;96414.56;5073283;28;20447;-38
2022/03/29 09:33:13;;;;;;;12.07;8.60;;;;;;;22.26;27.90;96406.13;5073307;28;20458;-38
2022/03/29 09:35:58;;;;;;;12.23;9.10;;;;;;;22.42;27.50;96415.34;5073583;28;20831;-38
2022/03/29 09:38:30;;;;;;;16.43;7.77;;;;;;;22.23;27.79;96413.00;5087198;28;20443;-38
2022/03/29 09:40:58;;;;;;;13.60;8.60;;;;;;;22.05;28.15;96414.91;5093444;28;20427;-38
2022/03/29 09:43:26;;;;;;;13.40;8.47;;;;;;;21.86;28.28;96414.44;5093920;28;20871;-38
2022/03/29 09:45:55;;;;;;;18.13;9.53;;;;;;;21.92;27.89;96407.75;5093448;28;20443;-37
2022/03/29 09:48:35;;;;;;;13.13;8.93;;;;;;;21.86;27.73;96411.72;5094188;28;20496;-37
2022/03/29 09:51:21;;;;;;;14.80;8.87;;;;;;;22.23;27.96;96395.97;5093365;28;20922;-38
2022/03/29 09:53:51;;;;;;;10.90;8.20;;;;;;;21.89;26.98;96370.56;5093378;28;20929;-37
2022/03/29 09:56:24;;;;;;;13.47;8.20;;;;;;;21.89;27.91;96384.06;5093612;28;20486;-38
2022/03/29 09:59:07;;;;;;;13.90;9.00;;;;;;;21.66;27.55;96391.53;5093348;28;20919;-38
2022/03/29 10:01:48;;;;;;;12.53;8.77;;;;;;;21.39;27.93;96385.28;5092987;28;20455;-38
2022/03/29 10:04:16;;;;;;;15.23;9.43;;;;;;;21.21;28.23;96372.88;5093332;28;20423;-37
2022/03/29 10:06:45;;;;;;;13.17;8.63;;;;;;;21.22;27.63;96375.25;5093182;28;20817;-38
2022/03/29 10:09:28;;;;;;;13.93;8.40;;;;;;;21.22;27.73;96369.84;5093200;28;20447;-38
2022/03/29 10:11:57;;;;;;;13.50;8.27;;;;;;;21.13;27.85;96365.56;5093181;28;20517;-37
2022/03/29 10:14:25;;;;;;;16.00;8.60;;;;;;;21.08;27.13;96363.81;5093710;28;20447;-37
2022/03/29 10:16:54;;;;;;;11.03;8.20;;;;;;;21.13;27.08;96360.97;5093050;28;20518;-38
2022/03/29 10:19:22;;;;;;;18.87;9.80;;;;;;;21.11;27.46;96357.78;5093515;28;20799;-38
2022/03/29 10:21:53;;;;;;;16.27;9.83;;;;;;;21.19;27.52;96358.91;5093100;28;20490;-38
2022/03/29 10:24:22;;;;;;;12.10;8.90;;;;;;;21.28;28.19;96346.22;5093142;28;20504;-38
2022/03/29 10:26:51;;;;;;;17.73;9.40;;;;;;;21.44;27.84;96344.66;5095291;28;20437;-37
2022/03/29 10:29:19;;;;;;;9.40;7.90;;;;;;;21.63;27.89;96335.44;5096939;28;20453;-37
2022/03/29 10:31:50;;;;;;;12.93;8.03;;;;;;;21.79;27.79;96333.03;5096923;28;20439;-37
2022/03/29 10:34:20;;;;;;;14.00;8.37;;;;;;;21.96;27.85;96338.44;5096827;28;20567;-38
2022/03/29 10:37:04;;;;;;;9.13;7.90;;;;;;;21.98;26.97;96325.38;5096649;28;20490;-40
2022/03/29 10:39:52;;;;;;;16.40;8.03;;;;;;;22.00;25.87;96319.66;5097089;28;20434;-40
2022/03/29 10:42:29;;;;;;;33.77;9.30;;;;;;;22.03;26.38;96322.53;5096721;28;20514;-41
2022/03/29 10:45:09;;;;;;;15.50;7.60;;;;;;;22.05;25.92;96314.91;5096922;28;20458;-39
2022/03/29 10:47:36;;;;;;;19.30;8.80;;;;;;;22.12;26.58;96321.72;5096565;28;20430;-40
2022/03/29 10:50:05;;;;;;;13.17;7.33;;;;;;;21.95;26.49;96317.16;5096851;28;20453;-37
2022/03/29 10:52:41;;;;;;;15.07;8.50;;;;;;;21.74;27.31;96319.72;5096399;28;20918;-37
2022/03/29 10:55:21;;;;;;;15.80;8.90;;;;;;;21.65;27.42;96319.72;5096763;28;20423;-37
2022/03/29 10:58:20;;;;;;;9.57;7.10;;;;;;;21.68;27.78;96309.09;5096338;28;20510;-38
2022/03/29 11:00:48;;;;;;;12.67;8.77;;;;;;;21.52;27.46;96307.19;5074043;28;20428;-37
2022/03/29 11:03:21;;;;;;;15.43;9.50;;;;;;;21.54;27.84;96305.75;5074230;28;20448;-37
2022/03/29 11:06:08;;;;;;;14.13;9.43;;;;;;;21.83;27.68;96290.75;5073951;28;20432;-38
2022/03/29 11:08:38;;;;;;;10.70;8.17;;;;;;;21.99;26.30;96278.34;5073915;28;20935;-38
2022/03/29 11:11:07;;;;;;;13.37;8.07;;;;;;;22.05;26.66;96282.47;5073855;28;20436;-37
2022/03/29 11:13:37;;;;;;;10.50;8.00;;;;;;;22.37;26.67;96277.63;5073760;28;20527;-38
2022/03/29 11:16:30;;;;;;;12.77;9.33;;;;;;;22.69;26.19;96272.66;5073640;28;20561;-37
2022/03/29 11:18:59;;;;;;;11.57;8.13;;;;;;;22.90;26.26;96278.91;5073684;28;20626;-38
2022/03/29 11:21:40;;;;;;;9.17;7.90;;;;;;;22.86;25.11;96261.72;5073624;28;20455;-38
2022/03/29 11:24:15;;;;;;;15.73;9.07;;;;;;;22.61;25.14;96233.72;5073420;28;20436;-37
2022/03/29 11:26:58;;;;;;;12.33;7.60;;;;;;;22.64;26.08;96248.50;5073589;28;20486;-37
2022/03/29 11:29:26;;;;;;;14.77;9.63;;;;;;;22.77;25.84;96242.06;5073757;28;20440;-37
2022/03/29 11:31:56;;;;;;;11.93;8.37;;;;;;;22.98;26.03;96252.13;5073412;28;20542;-37
2022/03/29 11:34:24;;;;;;;12.60;9.50;;;;;;;23.06;25.38;96240.47;5079724;28;20442;-37
2022/03/29 11:36:51;;;;;;;10.43;8.37;;;;;;;23.09;26.25;96246.00;5095895;28;20494;-40